Time;durP1;ratioP1;P1;durP2;ratioP2;P2;SDS_P1;SDS_P2;PMS_P1;PMS_P2;Temp;Humidity;BMP_temperature;BMP_pressure;BME280_temperature;BME280_humidity;BME280_pressure;Samples;Min_cycle;Max_cycle;Signal;HPM_P1;HPM_P2
2021/05/07 00:00:57;;;;;;;51.80;9.80;;;;;;;6.35;98.34;100554.71;1784832;80;20946;-41
2021/05/07 00:03:25;;;;;;;30.77;7.78;;;;;;;6.30;98.16;100557.27;1784757;79;21054;-41
2021/05/07 00:05:55;;;;;;;16.52;7.28;;;;;;;6.26;98.09;100560.70;1784826;80;21140;-41
2021/05/07 00:08:27;;;;;;;32.55;8.20;;;;;;;6.20;98.05;100552.98;1784832;80;21093;-41
2021/05/07 00:10:56;;;;;;;36.03;9.53;;;;;;;6.18;98.07;100558.11;1785031;80;21467;-42
2021/05/07 00:13:25;;;;;;;30.00;8.58;;;;;;;6.13;98.04;100566.66;1784334;80;21087;-41
2021/05/07 00:15:53;;;;;;;56.13;9.33;;;;;;;6.11;98.07;100564.52;1784886;80;21029;-41
2021/05/07 00:18:21;;;;;;;53.90;10.55;;;;;;;6.08;98.12;100567.09;1784826;79;20935;-41
2021/05/07 00:20:49;;;;;;;87.45;12.75;;;;;;;6.07;98.20;100566.66;1784875;79;20978;-41
2021/05/07 00:23:17;;;;;;;59.38;9.70;;;;;;;6.00;97.98;100571.77;1784702;80;21137;-41
2021/05/07 00:25:46;;;;;;;76.92;10.35;;;;;;;5.82;97.46;100570.01;1784872;80;20990;-41
2021/05/07 00:28:16;;;;;;;68.85;10.88;;;;;;;5.60;96.92;100570.34;1784803;80;21077;-41
2021/05/07 00:30:43;;;;;;;65.72;11.70;;;;;;;5.39;96.70;100562.97;1784789;79;21018;-41
2021/05/07 00:33:11;;;;;;;76.45;11.75;;;;;;;5.25;96.70;100559.49;1784897;80;21058;-41
2021/05/07 00:35:39;;;;;;;85.50;12.37;;;;;;;5.12;96.77;100569.67;1784838;80;21394;-42
2021/05/07 00:38:07;;;;;;;40.43;11.53;;;;;;;5.02;96.76;100566.63;1784729;80;21025;-41
2021/05/07 00:40:35;;;;;;;74.75;10.78;;;;;;;4.94;96.87;100567.02;1784803;80;20979;-41
2021/05/07 00:43:03;;;;;;;59.80;11.85;;;;;;;4.86;97.01;100574.22;1784806;80;21045;-41
2021/05/07 00:45:31;;;;;;;69.20;13.62;;;;;;;4.79;97.13;100572.46;1784817;79;20974;-41
2021/05/07 00:48:17;;;;;;;51.30;12.10;;;;;;;4.73;97.13;100576.27;1784850;80;21193;-41
2021/05/07 00:50:47;;;;;;;31.05;10.53;;;;;;;4.66;97.11;100571.92;1784715;80;21002;-42
2021/05/07 00:53:16;;;;;;;70.42;10.53;;;;;;;4.57;97.04;100576.58;1784788;80;20942;-41
2021/05/07 00:55:44;;;;;;;47.38;6.85;;;;;;;4.48;97.03;100577.36;1784793;80;21014;-41
2021/05/07 00:58:14;;;;;;;48.48;6.53;;;;;;;4.42;97.05;100583.69;1784809;79;21002;-42
2021/05/07 01:00:42;;;;;;;22.25;7.10;;;;;;;4.40;97.27;100585.38;1784791;80;21364;-41
2021/05/07 01:03:10;;;;;;;14.18;6.78;;;;;;;4.39;97.31;100578.53;1784716;80;21018;-41
2021/05/07 01:05:37;;;;;;;13.10;6.20;;;;;;;4.38;97.52;100584.51;1784764;79;20974;-42
2021/05/07 01:08:10;;;;;;;11.88;5.60;;;;;;;4.34;97.54;100580.20;1784760;80;21065;-41
2021/05/07 01:10:39;;;;;;;10.20;4.58;;;;;;;4.30;97.58;100584.02;1784883;80;20947;-41
2021/05/07 01:13:08;;;;;;;14.75;4.80;;;;;;;4.26;97.75;100580.13;1784867;80;21412;-42
2021/05/07 01:15:39;;;;;;;6.10;5.40;;;;;;;4.26;97.75;100580.13;1784353;80;21460;-41
2021/05/07 01:18:07;;;;;;;4.58;4.20;;;;;;;4.21;97.54;100581.38;1784980;80;20971;-41
2021/05/07 01:20:37;;;;;;;16.35;3.70;;;;;;;4.15;97.45;100580.02;1784947;80;21005;-41
2021/05/07 01:23:07;;;;;;;10.70;5.05;;;;;;;4.11;97.51;100580.43;1787958;79;20934;-41
2021/05/07 01:25:40;;;;;;;4.60;4.20;;;;;;;4.09;97.57;100585.09;1799495;79;21366;-41
2021/05/07 01:28:13;;;;;;;21.15;4.67;;;;;;;4.07;97.62;100580.38;1799349;79;21013;-41
2021/05/07 01:30:43;;;;;;;7.10;4.78;;;;;;;4.05;97.68;100578.22;1799485;79;21549;-41
2021/05/07 01:33:14;;;;;;;13.55;3.40;;;;;;;4.07;97.85;100581.66;1799450;79;21514;-41
2021/05/07 01:35:46;;;;;;;7.15;4.10;;;;;;;4.08;97.93;100594.90;1799478;79;20982;-41
2021/05/07 01:38:15;;;;;;;20.25;4.37;;;;;;;4.08;98.01;100588.49;1799482;79;21194;-41
2021/05/07 01:40:48;;;;;;;14.63;4.78;;;;;;;4.07;97.98;100590.63;1799468;79;21645;-41
2021/05/07 01:43:17;;;;;;;19.80;5.85;;;;;;;4.07;98.03;100591.50;1799371;79;20994;-41
2021/05/07 01:45:47;;;;;;;17.40;4.97;;;;;;;4.11;98.16;100595.80;1799544;79;21609;-41
2021/05/07 01:48:16;;;;;;;37.63;5.33;;;;;;;4.14;98.29;100593.27;1799561;79;21033;-41
2021/05/07 01:50:46;;;;;;;6.92;4.08;;;;;;;4.17;98.26;100595.02;1799485;79;21441;-41
2021/05/07 01:53:14;;;;;;;9.95;4.50;;;;;;;4.16;98.19;100595.42;1799408;79;20942;-41
2021/05/07 01:55:47;;;;;;;9.45;4.60;;;;;;;4.17;98.06;100601.42;1799453;79;21009;-41
2021/05/07 01:58:29;;;;;;;25.35;7.00;;;;;;;4.14;97.99;100598.39;1777575;79;21001;-41
2021/05/07 02:00:58;;;;;;;21.33;5.40;;;;;;;4.11;97.83;100601.33;1799513;79;20926;-42
2021/05/07 02:03:27;;;;;;;14.83;6.08;;;;;;;4.06;97.75;100597.87;1799382;78;21368;-41
2021/05/07 02:05:56;;;;;;;26.50;6.00;;;;;;;3.99;97.62;100602.06;1780386;80;21065;-41
2021/05/07 02:08:24;;;;;;;15.35;5.70;;;;;;;3.92;97.54;100605.00;1780465;80;21018;-41
2021/05/07 02:10:52;;;;;;;15.13;5.47;;;;;;;3.85;97.48;100607.02;1780477;80;21045;-41
2021/05/07 02:13:21;;;;;;;25.52;4.97;;;;;;;3.76;97.41;100603.93;1780547;80;20947;-41
2021/05/07 02:15:50;;;;;;;17.55;5.17;;;;;;;3.67;97.32;100608.55;1780535;80;21373;-41
2021/05/07 02:18:19;;;;;;;22.70;5.75;;;;;;;3.59;97.26;100607.57;1780409;80;21042;-41
2021/05/07 02:20:49;;;;;;;9.58;4.70;;;;;;;3.51;97.20;100616.86;1780464;80;20955;-41
2021/05/07 02:23:18;;;;;;;20.82;4.47;;;;;;;3.42;97.18;100623.59;1780986;80;21042;-41
2021/05/07 02:25:46;;;;;;;49.03;5.70;;;;;;;3.35;97.21;100630.72;1784942;80;21303;-41
2021/05/07 02:28:15;;;;;;;29.90;8.03;;;;;;;3.32;97.35;100631.11;1784093;80;21515;-41
2021/05/07 02:30:43;;;;;;;17.27;5.30;;;;;;;3.30;97.54;100632.36;1784867;80;21025;-41
2021/05/07 02:33:11;;;;;;;30.90;6.72;;;;;;;3.32;97.80;100633.23;1784970;80;20986;-41
2021/05/07 02:35:39;;;;;;;37.28;7.33;;;;;;;3.34;97.96;100643.07;1784814;80;20926;-42
2021/05/07 02:38:09;;;;;;;42.20;7.78;;;;;;;3.35;98.04;100643.52;1784920;80;20931;-41
2021/05/07 02:40:36;;;;;;;49.00;8.38;;;;;;;3.36;98.13;100644.39;1784886;79;21418;-41
2021/05/07 02:43:05;;;;;;;51.75;8.75;;;;;;;3.47;98.48;100657.34;1784796;80;21021;-41
2021/05/07 02:45:34;;;;;;;37.40;8.35;;;;;;;3.61;98.76;100657.52;1784878;79;20970;-41
2021/05/07 02:48:04;;;;;;;76.70;10.72;;;;;;;3.73;98.91;100666.23;1784906;80;21042;-41
2021/05/07 02:50:32;;;;;;;52.95;11.57;;;;;;;3.84;98.98;100664.21;1784941;79;21531;-41
2021/05/07 02:53:00;;;;;;;51.37;11.65;;;;;;;3.96;99.10;100668.22;1784919;80;21133;-41
2021/05/07 02:55:28;;;;;;;49.38;9.68;;;;;;;4.10;99.21;100673.52;1784816;80;21030;-41
2021/05/07 02:57:56;;;;;;;137.97;14.83;;;;;;;4.22;99.22;100677.92;1784884;80;20994;-41
2021/05/07 03:00:24;;;;;;;136.97;16.20;;;;;;;4.33;99.19;100674.60;1784907;80;20924;-41
2021/05/07 03:02:51;;;;;;;94.62;14.78;;;;;;;4.44;99.20;100679.44;1784900;80;20971;-41
2021/05/07 03:05:20;;;;;;;51.08;11.65;;;;;;;4.57;99.27;100679.14;1784820;79;21200;-41
2021/05/07 03:07:47;;;;;;;53.42;9.03;;;;;;;4.68;99.29;100675.40;1784786;80;21026;-42
2021/05/07 03:10:15;;;;;;;46.28;8.25;;;;;;;4.77;99.18;100677.16;1784889;80;21073;-41
2021/05/07 03:12:44;;;;;;;59.50;10.25;;;;;;;4.81;99.00;100682.78;1784879;80;20954;-41
2021/05/07 03:15:13;;;;;;;52.38;10.25;;;;;;;4.83;98.86;100688.78;1784809;80;20934;-41
2021/05/07 03:17:41;;;;;;;54.48;11.73;;;;;;;4.84;98.79;100693.91;1784934;80;22274;-41
2021/05/07 03:20:12;;;;;;;38.48;11.15;;;;;;;4.88;98.78;100691.80;1784766;80;20962;-41
2021/05/07 03:22:39;;;;;;;36.60;12.05;;;;;;;5.02;99.00;100698.78;1784885;80;21464;-41
2021/05/07 03:25:09;;;;;;;52.67;11.22;;;;;;;5.16;99.19;100700.17;1784727;79;20943;-41
2021/05/07 03:27:37;;;;;;;29.20;8.83;;;;;;;5.28;99.28;100697.68;1784962;80;21598;-41
2021/05/07 03:30:06;;;;;;;38.88;8.55;;;;;;;5.42;99.41;100696.94;1784821;80;21256;-42
2021/05/07 03:32:34;;;;;;;36.30;8.10;;;;;;;5.58;99.59;100697.89;1784791;80;21001;-41
2021/05/07 03:35:02;;;;;;;29.00;8.30;;;;;;;5.80;100.00;100698.02;1784879;80;21034;-41
2021/05/07 03:37:29;;;;;;;48.80;9.60;;;;;;;5.98;100.00;100692.97;1784910;80;21601;-41
2021/05/07 03:39:57;;;;;;;35.00;8.58;;;;;;;6.22;100.00;100688.81;1784865;80;21047;-42
2021/05/07 03:42:24;;;;;;;41.30;9.68;;;;;;;6.56;100.00;100693.16;1784849;80;21395;-41
2021/05/07 03:44:53;;;;;;;35.60;8.05;;;;;;;6.92;100.00;100692.80;1784771;80;21034;-41
2021/05/07 03:47:21;;;;;;;31.00;7.95;;;;;;;7.37;100.00;100686.33;1784804;80;20923;-42
2021/05/07 03:49:49;;;;;;;51.50;9.43;;;;;;;7.80;100.00;100686.65;1784758;80;21014;-42
2021/05/07 03:52:16;;;;;;;36.35;7.30;;;;;;;8.24;100.00;100687.35;1784840;80;21065;-42
2021/05/07 03:54:45;;;;;;;29.18;6.78;;;;;;;8.66;100.00;100686.27;1784821;80;21426;-41
2021/05/07 03:57:13;;;;;;;29.80;7.60;;;;;;;9.06;100.00;100699.73;1784750;80;21708;-42
2021/05/07 03:59:41;;;;;;;113.72;12.63;;;;;;;9.38;99.46;100700.31;1784844;80;21065;-42
2021/05/07 04:02:09;;;;;;;60.48;10.30;;;;;;;9.42;98.18;100718.79;1784827;80;20895;-42
2021/05/07 04:04:39;;;;;;;58.15;8.55;;;;;;;9.30;97.31;100720.21;1784767;79;20926;-42
2021/05/07 04:07:06;;;;;;;39.55;7.60;;;;;;;9.23;96.79;100713.39;1784809;80;21349;-42
2021/05/07 04:09:38;;;;;;;20.45;7.20;;;;;;;9.32;96.74;100716.72;1784737;80;21034;-42
2021/05/07 04:12:14;;;;;;;30.27;7.95;;;;;;;9.54;96.64;100716.52;1784761;80;21014;-42
2021/05/07 04:14:42;;;;;;;18.10;6.35;;;;;;;9.77;96.27;100716.30;1758664;80;20887;-42
2021/05/07 04:17:10;;;;;;;18.77;6.45;;;;;;;9.94;95.71;100719.56;1784828;80;20927;-42
2021/05/07 04:19:38;;;;;;;63.98;8.65;;;;;;;10.03;95.16;100708.68;1784821;80;21343;-42
2021/05/07 04:22:06;;;;;;;77.05;9.70;;;;;;;10.13;94.70;100707.27;1784723;80;20959;-42
2021/05/07 04:24:34;;;;;;;57.23;7.47;;;;;;;10.23;94.20;100714.05;1784687;80;21006;-42
2021/05/07 04:27:01;;;;;;;18.42;5.60;;;;;;;10.33;93.90;100719.93;1784876;79;21026;-42
2021/05/07 04:29:29;;;;;;;87.55;10.38;;;;;;;10.52;93.69;100722.31;1755023;80;20939;-42
2021/05/07 04:31:59;;;;;;;24.50;5.72;;;;;;;10.59;93.20;100723.50;1784821;80;21503;-42
2021/05/07 04:34:26;;;;;;;29.23;5.50;;;;;;;10.77;92.76;100730.14;1784767;80;21053;-42
2021/05/07 04:36:54;;;;;;;14.18;4.80;;;;;;;10.95;92.63;100729.88;1784810;80;21033;-42
2021/05/07 04:39:21;;;;;;;4.87;3.92;;;;;;;10.97;92.07;100739.34;1784755;80;21066;-42
2021/05/07 04:41:49;;;;;;;4.78;4.05;;;;;;;11.08;91.62;100731.41;1784811;80;20875;-42
2021/05/07 04:44:17;;;;;;;4.72;4.35;;;;;;;11.23;91.29;100728.13;1784902;80;21348;-42
2021/05/07 04:46:45;;;;;;;10.30;4.55;;;;;;;11.28;90.08;100733.66;1784938;80;20962;-42
2021/05/07 04:49:13;;;;;;;10.78;5.00;;;;;;;11.31;89.96;100736.66;1784921;80;21049;-42
2021/05/07 04:51:40;;;;;;;9.40;4.62;;;;;;;11.38;89.10;100738.25;1784961;80;20942;-42
2021/05/07 04:54:09;;;;;;;6.28;4.55;;;;;;;11.50;89.29;100736.75;1785008;80;21006;-42
2021/05/07 04:56:36;;;;;;;9.98;4.67;;;;;;;11.58;87.48;100736.59;1784892;80;22316;-42
2021/05/07 04:59:04;;;;;;;6.65;4.72;;;;;;;11.69;87.55;100733.80;1784812;80;21037;-42
2021/05/07 05:01:31;;;;;;;6.92;4.25;;;;;;;11.69;86.07;100735.10;1785004;80;21033;-42
2021/05/07 05:04:00;;;;;;;11.80;4.30;;;;;;;11.75;85.39;100736.31;1784875;79;20938;-42
2021/05/07 05:06:27;;;;;;;7.65;4.10;;;;;;;11.87;85.02;100733.05;1785010;79;20994;-42
2021/05/07 05:08:55;;;;;;;5.62;4.55;;;;;;;11.99;83.92;100735.39;1785000;80;21343;-42
2021/05/07 05:11:23;;;;;;;5.62;4.20;;;;;;;12.11;80.72;100729.59;1784861;80;21026;-42
2021/05/07 05:13:50;;;;;;;7.22;4.53;;;;;;;12.19;77.58;100724.66;1784946;80;20903;-42
2021/05/07 05:16:19;;;;;;;5.80;4.70;;;;;;;12.26;75.93;100732.31;1784933;80;21054;-43
2021/05/07 05:18:47;;;;;;;5.42;4.08;;;;;;;12.28;73.99;100735.72;1784986;80;20975;-43
2021/05/07 05:21:15;;;;;;;8.10;4.20;;;;;;;12.46;75.30;100737.94;1784967;80;21292;-42
2021/05/07 05:23:47;;;;;;;4.92;4.30;;;;;;;12.81;75.41;100740.62;1784872;80;21092;-42
2021/05/07 05:26:15;;;;;;;10.13;3.90;;;;;;;13.02;73.00;100738.42;1781002;80;20958;-42
2021/05/07 05:28:43;;;;;;;6.45;4.60;;;;;;;13.19;71.56;100743.20;1780483;80;21018;-43
2021/05/07 05:31:10;;;;;;;9.40;4.20;;;;;;;13.25;69.97;100747.38;1780449;80;20931;-42
2021/05/07 05:33:38;;;;;;;4.28;3.90;;;;;;;13.34;68.37;100747.16;1780524;80;21190;-42
2021/05/07 05:36:06;;;;;;;6.03;4.47;;;;;;;13.45;67.60;100747.76;1780410;80;21591;-43
2021/05/07 05:38:34;;;;;;;11.63;4.50;;;;;;;13.52;65.43;100745.02;1780501;80;21014;-42
2021/05/07 05:41:02;;;;;;;5.40;4.05;;;;;;;13.48;64.10;100755.47;1780488;80;21069;-42
2021/05/07 05:43:29;;;;;;;5.55;4.47;;;;;;;13.55;65.16;100755.34;1780425;80;21053;-42
2021/05/07 05:45:57;;;;;;;10.03;4.17;;;;;;;13.74;65.79;100746.13;1780597;79;21271;-42
2021/05/07 05:48:25;;;;;;;7.37;3.98;;;;;;;14.03;64.99;100748.83;1780412;80;21034;-42
2021/05/07 05:50:53;;;;;;;7.78;4.17;;;;;;;14.23;61.12;100746.95;1780548;80;21002;-43
2021/05/07 05:53:21;;;;;;;8.53;3.77;;;;;;;14.37;59.62;100748.72;1780459;80;20995;-42
2021/05/07 05:55:48;;;;;;;6.80;3.62;;;;;;;14.48;60.22;100748.40;1780515;80;21049;-42
2021/05/07 05:58:16;;;;;;;6.58;3.15;;;;;;;14.51;59.02;100751.34;1780449;80;21194;-42
2021/05/07 06:00:43;;;;;;;8.60;3.27;;;;;;;14.56;58.12;100745.56;1780382;79;21009;-42
2021/05/07 06:03:12;;;;;;;11.38;3.20;;;;;;;14.74;55.05;100744.61;1780444;80;21018;-42
2021/05/07 06:05:40;;;;;;;7.62;3.00;;;;;;;14.70;54.02;100742.97;1780457;79;20891;-42
2021/05/07 06:08:07;;;;;;;7.60;2.58;;;;;;;14.77;53.14;100740.59;1780531;80;21068;-42
2021/05/07 06:10:36;;;;;;;11.88;3.12;;;;;;;14.99;52.66;100734.70;1780559;80;22383;-42
2021/05/07 06:13:05;;;;;;;12.45;4.12;;;;;;;15.26;51.87;100743.83;1780428;80;21062;-42
2021/05/07 06:15:33;;;;;;;9.28;2.62;;;;;;;15.39;49.55;100734.70;1761843;80;21029;-42
2021/05/07 06:18:00;;;;;;;8.10;2.98;;;;;;;15.44;49.92;100733.24;1780458;80;21026;-42
2021/05/07 06:20:28;;;;;;;6.80;2.37;;;;;;;15.50;47.92;100736.47;1761957;81;21104;-43
2021/05/07 06:23:36;;;;;;;4.87;2.90;;;;;;;15.80;48.32;100732.84;1776986;79;23260;-42
2021/05/07 06:26:03;;;;;;;8.20;2.42;;;;;;;15.94;46.49;100728.45;1749481;82;20992;-41
2021/05/07 06:28:32;;;;;;;4.53;2.58;;;;;;;16.09;44.36;100730.95;1749405;82;21383;-41
2021/05/07 06:30:59;;;;;;;2.58;2.10;;;;;;;16.13;42.25;100740.84;1749376;80;21006;-41
2021/05/07 06:33:27;;;;;;;5.60;2.83;;;;;;;16.19;40.44;100738.86;1749518;82;20979;-42
2021/05/07 06:35:55;;;;;;;11.30;2.70;;;;;;;16.31;41.97;100734.94;1749420;80;20896;-42
2021/05/07 06:38:22;;;;;;;3.85;2.30;;;;;;;16.29;41.82;100736.72;1749442;82;21011;-42
2021/05/07 06:40:50;;;;;;;9.58;2.72;;;;;;;16.33;42.98;100740.95;1749413;82;21359;-42
2021/05/07 06:43:19;;;;;;;7.05;2.75;;;;;;;16.49;43.67;100740.34;1749277;80;20998;-42
2021/05/07 06:45:46;;;;;;;13.62;2.60;;;;;;;16.64;44.00;100745.42;1749452;81;21058;-41
2021/05/07 06:48:14;;;;;;;9.33;2.62;;;;;;;16.77;44.38;100742.73;1749340;82;20994;-42
2021/05/07 06:50:41;;;;;;;20.35;3.42;;;;;;;16.93;42.76;100748.19;1749417;82;20995;-42
2021/05/07 06:53:09;;;;;;;5.12;2.27;;;;;;;16.95;42.43;100746.36;1749442;82;21359;-41
2021/05/07 06:55:37;;;;;;;25.92;3.02;;;;;;;16.88;41.66;100746.23;1749282;82;20975;-41
2021/05/07 06:58:04;;;;;;;6.90;1.60;;;;;;;16.97;41.52;100744.14;1749353;82;21476;-42
2021/05/07 07:00:33;;;;;;;10.38;2.00;;;;;;;17.04;41.91;100746.48;1749394;82;21019;-41
2021/05/07 07:03:01;;;;;;;11.80;1.77;;;;;;;16.98;38.06;100751.07;1749370;82;20944;-42
2021/05/07 07:05:28;;;;;;;3.05;1.52;;;;;;;16.93;37.97;100746.05;1724477;82;21205;-41
2021/05/07 07:07:57;;;;;;;36.80;3.08;;;;;;;17.07;36.68;100753.36;1719453;82;21014;-42
2021/05/07 07:10:25;;;;;;;123.72;7.15;;;;;;;17.23;32.85;100753.58;1719533;83;21003;-41
2021/05/07 07:12:54;;;;;;;14.90;1.90;;;;;;;17.21;31.07;100756.23;1719509;82;21022;-41
2021/05/07 07:15:23;;;;;;;12.03;1.65;;;;;;;17.38;31.96;100759.92;1719534;83;21014;-42
2021/05/07 07:17:54;;;;;;;11.03;1.72;;;;;;;17.63;31.77;100756.27;1719518;82;21364;-42
2021/05/07 07:20:22;;;;;;;9.60;1.10;;;;;;;17.91;33.87;100753.27;1692196;83;21002;-42
2021/05/07 07:22:50;;;;;;;1.87;0.90;;;;;;;18.05;32.09;100743.50;1719889;83;21038;-42
2021/05/07 07:25:18;;;;;;;5.40;1.12;;;;;;;18.13;30.69;100746.26;1720306;83;21420;-42
2021/05/07 07:27:46;;;;;;;9.28;1.27;;;;;;;18.12;28.53;100743.25;1720306;83;20927;-42
2021/05/07 07:30:15;;;;;;;2.08;1.00;;;;;;;18.06;29.13;100746.99;1720281;83;22816;-41
2021/05/07 07:32:43;;;;;;;3.30;1.20;;;;;;;18.16;30.74;100751.35;1720228;83;21002;-42
2021/05/07 07:35:13;;;;;;;8.58;1.10;;;;;;;18.24;31.40;100750.53;1719741;83;21039;-42
2021/05/07 07:37:40;;;;;;;4.20;1.60;;;;;;;18.36;31.39;100752.60;1719756;82;21022;-42
2021/05/07 07:40:10;;;;;;;1.27;0.82;;;;;;;18.63;30.68;100752.22;1719905;82;21062;-42
2021/05/07 07:42:38;;;;;;;4.00;1.25;;;;;;;18.93;31.25;100741.17;1719762;82;21199;-42
2021/05/07 07:45:09;;;;;;;5.37;1.45;;;;;;;19.19;31.39;100742.99;1719785;83;20968;-42
2021/05/07 07:47:36;;;;;;;7.70;1.30;;;;;;;19.44;30.92;100743.06;1719091;83;20999;-42
2021/05/07 07:50:06;;;;;;;11.53;1.27;;;;;;;19.68;27.79;100726.48;1719734;83;21006;-43
2021/05/07 07:52:35;;;;;;;6.67;0.98;;;;;;;19.69;27.53;100733.91;1719833;83;20943;-43
2021/05/07 07:55:05;;;;;;;2.80;1.10;;;;;;;19.71;27.75;100729.42;1719764;83;21163;-42
2021/05/07 07:57:32;;;;;;;6.05;1.20;;;;;;;19.77;27.83;100733.03;1719780;83;21591;-42
2021/05/07 08:00:00;;;;;;;25.72;1.87;;;;;;;19.58;27.60;100733.61;1719806;83;21026;-42
2021/05/07 08:02:29;;;;;;;3.70;1.30;;;;;;;19.63;27.24;100739.49;1719678;83;20983;-43
2021/05/07 08:04:57;;;;;;;3.85;0.78;;;;;;;19.70;30.06;100746.56;1719738;82;20943;-43
2021/05/07 08:07:24;;;;;;;4.17;1.10;;;;;;;19.71;29.33;100746.50;1719751;83;21422;-42
2021/05/07 08:09:52;;;;;;;4.10;1.02;;;;;;;19.86;29.18;100744.84;1719751;83;21062;-43
2021/05/07 08:12:20;;;;;;;23.80;2.25;;;;;;;20.05;30.77;100738.16;1719765;83;21031;-42
2021/05/07 08:14:49;;;;;;;20.88;2.67;;;;;;;20.32;30.29;100740.69;1719711;83;21041;-42
2021/05/07 08:17:16;;;;;;;21.40;1.77;;;;;;;20.44;27.70;100739.17;1719785;83;21513;-43
2021/05/07 08:19:46;;;;;;;5.15;0.90;;;;;;;20.45;27.18;100743.01;1719883;83;22283;-43
2021/05/07 08:22:14;;;;;;;4.30;1.00;;;;;;;20.44;28.05;100748.37;1719595;82;21030;-43
2021/05/07 08:24:42;;;;;;;3.90;1.25;;;;;;;20.54;26.61;100754.80;1719652;83;21022;-43
2021/05/07 08:27:10;;;;;;;8.70;0.60;;;;;;;20.68;27.58;100749.63;1719744;83;21484;-43
2021/05/07 08:29:38;;;;;;;1.37;0.72;;;;;;;20.95;27.74;100752.96;1719870;83;21468;-43
2021/05/07 08:32:06;;;;;;;10.23;1.30;;;;;;;20.96;26.74;100753.80;1719728;83;21380;-43
2021/05/07 08:34:34;;;;;;;7.33;0.88;;;;;;;20.99;26.29;100757.59;1719645;83;20971;-42
2021/05/07 08:37:01;;;;;;;20.17;1.17;;;;;;;20.80;25.91;100753.38;1693313;83;21121;-44
2021/05/07 08:39:31;;;;;;;9.58;1.05;;;;;;;20.81;26.68;100756.84;1719153;83;21038;-43
2021/05/07 08:41:58;;;;;;;10.23;1.10;;;;;;;20.78;25.27;100757.84;1719682;83;21202;-43
2021/05/07 08:44:26;;;;;;;6.08;0.82;;;;;;;20.64;25.26;100757.31;1719711;83;21206;-43
2021/05/07 08:46:55;;;;;;;15.83;1.25;;;;;;;20.16;25.05;100756.45;1719699;83;21042;-43
2021/05/07 08:49:23;;;;;;;14.83;1.00;;;;;;;20.12;26.17;100752.30;1719736;83;21057;-43
2021/05/07 08:51:51;;;;;;;4.37;0.53;;;;;;;20.46;26.66;100742.55;1719676;82;21101;-43
2021/05/07 08:54:20;;;;;;;6.95;0.82;;;;;;;20.62;24.63;100738.14;1719307;83;21665;-43
2021/05/07 08:56:50;;;;;;;153.25;5.37;;;;;;;20.48;26.40;100735.43;1719783;83;21144;-42
2021/05/07 08:59:19;;;;;;;55.35;3.22;;;;;;;20.49;26.85;100735.81;1719658;83;21074;-42
2021/05/07 09:01:49;;;;;;;61.05;2.20;;;;;;;20.67;24.81;100741.36;1719673;83;20959;-43
2021/05/07 09:04:19;;;;;;;21.80;1.50;;;;;;;20.64;24.51;100748.56;1719711;82;21599;-42
2021/05/07 09:06:53;;;;;;;5.17;1.30;;;;;;;20.71;24.91;100739.86;1719715;83;21038;-42
2021/05/07 09:09:29;;;;;;;5.00;0.75;;;;;;;20.90;25.09;100741.86;1719673;83;21476;-42
2021/05/07 09:12:01;;;;;;;2.35;0.70;;;;;;;20.94;25.24;100742.06;1719645;83;21030;-42
2021/05/07 09:14:29;;;;;;;0.85;0.60;;;;;;;20.83;25.17;100740.98;1719682;83;21102;-42
2021/05/07 09:17:03;;;;;;;0.93;0.70;;;;;;;20.78;25.16;100739.44;1715684;83;20995;-42
2021/05/07 09:19:37;;;;;;;0.60;0.60;;;;;;;20.90;25.40;100738.37;1719694;83;21168;-42
2021/05/07 09:22:02;;;;;;;1.10;0.53;;;;;;;20.99;25.14;100738.31;1718897;83;21233;-42
2021/05/07 09:24:36;;;;;;;6.03;0.80;;;;;;;20.87;24.31;100731.52;1706286;83;20975;-42
2021/05/07 09:27:06;;;;;;;4.62;0.90;;;;;;;20.89;24.70;100730.96;1706278;84;20948;-42
2021/05/07 09:29:35;;;;;;;3.33;0.90;;;;;;;21.08;25.10;100725.92;1706130;84;21027;-42
2021/05/07 09:32:04;;;;;;;4.12;0.80;;;;;;;21.24;26.26;100726.73;1706181;84;21019;-42
2021/05/07 09:34:37;;;;;;;6.03;1.00;;;;;;;21.35;24.10;100731.35;1706123;83;22419;-42
2021/05/07 09:37:17;;;;;;;1.37;0.68;;;;;;;21.31;24.71;100727.67;1706200;84;21508;-42
2021/05/07 09:39:45;;;;;;;9.73;1.22;;;;;;;21.23;26.29;100730.30;1706186;83;20947;-42
2021/05/07 09:42:24;;;;;;;2.22;0.90;;;;;;;21.21;25.81;100730.00;1706115;82;21015;-42
2021/05/07 09:44:51;;;;;;;5.53;0.90;;;;;;;21.17;23.99;100726.72;1706248;83;21584;-43
2021/05/07 09:47:19;;;;;;;5.65;0.90;;;;;;;21.13;25.23;100733.10;1706092;83;21204;-44
2021/05/07 09:49:48;;;;;;;1.77;1.05;;;;;;;21.29;24.26;100729.09;1706113;84;21027;-42
2021/05/07 09:52:17;;;;;;;0.75;0.75;;;;;;;21.56;23.58;100732.78;1686321;84;21340;-42
2021/05/07 09:54:51;;;;;;;3.47;0.57;;;;;;;21.73;23.87;100721.27;1664270;84;20943;-42
2021/05/07 09:57:19;;;;;;;1.62;0.70;;;;;;;21.78;24.10;100720.52;1706141;82;20959;-42
2021/05/07 09:59:48;;;;;;;1.05;0.70;;;;;;;21.98;25.65;100717.95;1706237;84;21678;-42
2021/05/07 10:02:16;;;;;;;2.40;0.93;;;;;;;22.31;24.12;100715.44;1706054;82;21015;-42
2021/05/07 10:04:44;;;;;;;33.15;1.60;;;;;;;22.48;24.92;100722.31;1706101;82;20946;-42
2021/05/07 10:07:12;;;;;;;52.53;1.80;;;;;;;22.78;24.15;100716.44;1706116;84;21027;-43
2021/05/07 10:09:40;;;;;;;10.90;0.90;;;;;;;23.09;23.95;100719.20;1686333;84;21084;-41
2021/05/07 10:12:09;;;;;;;19.87;1.22;;;;;;;23.18;22.83;100719.06;1706127;84;21156;-43
2021/05/07 10:14:43;;;;;;;17.55;2.08;;;;;;;23.19;23.62;100718.57;1686073;84;20927;-43
2021/05/07 10:17:12;;;;;;;34.03;1.80;;;;;;;23.25;22.16;100711.61;1706280;82;21014;-43
2021/05/07 10:19:41;;;;;;;16.32;1.07;;;;;;;23.21;22.83;100698.19;1706078;83;21083;-42
2021/05/07 10:22:12;;;;;;;13.22;0.90;;;;;;;22.99;23.88;100705.41;1703921;82;20967;-42
2021/05/07 10:24:39;;;;;;;17.48;1.17;;;;;;;23.15;21.92;100698.16;1718455;82;21393;-42
2021/05/07 10:27:21;;;;;;;21.52;1.50;;;;;;;23.32;23.05;100701.45;1719661;83;20955;-43
2021/05/07 10:29:58;;;;;;;11.38;1.12;;;;;;;23.36;23.26;100693.22;1719652;83;21038;-42
2021/05/07 10:32:36;;;;;;;5.33;0.60;;;;;;;23.22;20.96;100695.91;1719815;83;21038;-43
2021/05/07 10:35:06;;;;;;;16.67;1.52;;;;;;;23.27;21.24;100691.69;1719662;83;21074;-42
2021/05/07 10:37:39;;;;;;;0.45;0.45;;;;;;;23.42;20.87;100693.28;1719658;82;22370;-42
2021/05/07 10:40:11;;;;;;;2.80;0.82;;;;;;;23.51;21.33;100683.39;1719310;83;21111;-41
2021/05/07 10:42:39;;;;;;;25.82;1.35;;;;;;;23.19;21.00;100671.91;1719631;83;21030;-41
2021/05/07 10:45:09;;;;;;;12.80;1.50;;;;;;;23.17;21.50;100675.59;1719616;82;21060;-41
2021/05/07 10:47:37;;;;;;;13.85;1.60;;;;;;;22.94;21.10;100670.08;1719599;83;20931;-42
2021/05/07 10:50:16;;;;;;;3.45;1.00;;;;;;;22.53;20.97;100663.52;1719696;83;22143;-42
2021/05/07 10:52:43;;;;;;;20.70;1.20;;;;;;;22.36;21.40;100667.23;1719577;83;21638;-41
2021/05/07 10:55:14;;;;;;;12.95;1.45;;;;;;;22.38;20.58;100667.97;1719607;83;20955;-42
2021/05/07 10:57:42;;;;;;;27.42;1.55;;;;;;;22.23;20.55;100667.18;1693623;83;21026;-41
2021/05/07 11:00:15;;;;;;;18.48;1.22;;;;;;;22.16;22.82;100673.77;1719601;83;21031;-41
2021/05/07 11:02:54;;;;;;;15.85;1.22;;;;;;;22.15;21.28;100673.88;1719559;83;21372;-42
2021/05/07 11:05:48;;;;;;;24.27;2.27;;;;;;;22.00;21.41;100668.63;1719479;82;21046;-43
2021/05/07 11:08:16;;;;;;;15.80;1.40;;;;;;;22.17;21.70;100670.67;1719608;83;20944;-43
2021/05/07 11:10:47;;;;;;;44.73;3.30;;;;;;;22.31;20.51;100661.88;1719733;83;21090;-42
2021/05/07 11:13:15;;;;;;;16.62;1.00;;;;;;;22.13;21.17;100659.47;1719858;83;21132;-43
2021/05/07 11:16:00;;;;;;;8.95;1.10;;;;;;;22.12;21.90;100657.78;1719721;83;21082;-43
2021/05/07 11:18:31;;;;;;;51.23;2.42;;;;;;;22.24;22.13;100652.19;1719689;83;21311;-43
2021/05/07 11:21:14;;;;;;;25.95;1.70;;;;;;;22.44;21.53;100648.73;1719743;83;20947;-42
2021/05/07 11:23:45;;;;;;;14.38;0.93;;;;;;;22.55;21.06;100642.79;1716747;82;20951;-42
2021/05/07 11:26:12;;;;;;;14.03;1.20;;;;;;;22.47;20.50;100640.16;1670475;83;21102;-43
2021/05/07 11:28:41;;;;;;;6.35;1.10;;;;;;;22.63;22.58;100636.06;1719709;83;21373;-42
2021/05/07 11:31:09;;;;;;;4.50;0.75;;;;;;;22.93;22.11;100629.66;1719633;82;21050;-43